sensor_id;sensor_type;location;lat;lon;timestamp;P1;durP1;ratioP1;P2;durP2;ratioP2
21927;SDS011;11128;51.096;17.190;2023-03-07T00:01:26;48.08;;;20.35;;
21927;SDS011;11128;51.096;17.190;2023-03-07T00:06:29;50.95;;;19.58;;
21927;SDS011;11128;51.096;17.190;2023-03-07T00:11:31;46.22;;;20.63;;
21927;SDS011;11128;51.096;17.190;2023-03-07T00:16:32;49.95;;;19.92;;
21927;SDS011;11128;51.096;17.190;2023-03-07T00:21:33;47.35;;;20.98;;
21927;SDS011;11128;51.096;17.190;2023-03-07T00:26:35;46.08;;;21.25;;
21927;SDS011;11128;51.096;17.190;2023-03-07T00:31:39;46.90;;;20.63;;
21927;SDS011;11128;51.096;17.190;2023-03-07T00:36:40;54.00;;;22.92;;
21927;SDS011;11128;51.096;17.190;2023-03-07T00:41:41;52.78;;;22.90;;
21927;SDS011;11128;51.096;17.190;2023-03-07T00:46:42;65.97;;;26.15;;
21927;SDS011;11128;51.096;17.190;2023-03-07T00:51:43;99.22;;;39.78;;
21927;SDS011;11128;51.096;17.190;2023-03-07T00:56:44;92.22;;;36.30;;
21927;SDS011;11128;51.096;17.190;2023-03-07T01:01:45;72.85;;;30.80;;
21927;SDS011;11128;51.096;17.190;2023-03-07T01:06:47;77.55;;;32.70;;
21927;SDS011;11128;51.096;17.190;2023-03-07T01:11:48;85.57;;;33.42;;
21927;SDS011;11128;51.096;17.190;2023-03-07T01:16:49;76.65;;;30.98;;
21927;SDS011;11128;51.096;17.190;2023-03-07T01:21:50;81.97;;;32.00;;
21927;SDS011;11128;51.096;17.190;2023-03-07T01:26:51;73.05;;;30.83;;
21927;SDS011;11128;51.096;17.190;2023-03-07T01:31:52;74.80;;;27.83;;
21927;SDS011;11128;51.096;17.190;2023-03-07T01:36:53;67.43;;;27.90;;
21927;SDS011;11128;51.096;17.190;2023-03-07T01:41:54;73.85;;;29.55;;
21927;SDS011;11128;51.096;17.190;2023-03-07T01:46:57;68.80;;;27.50;;
21927;SDS011;11128;51.096;17.190;2023-03-07T01:57:29;77.70;;;32.63;;
21927;SDS011;11128;51.096;17.190;2023-03-07T02:02:33;75.18;;;30.42;;
21927;SDS011;11128;51.096;17.190;2023-03-07T02:07:41;73.85;;;31.00;;
21927;SDS011;11128;51.096;17.190;2023-03-07T02:12:45;83.18;;;30.00;;
21927;SDS011;11128;51.096;17.190;2023-03-07T02:17:47;86.65;;;33.63;;
21927;SDS011;11128;51.096;17.190;2023-03-07T02:22:49;75.15;;;29.85;;
21927;SDS011;11128;51.096;17.190;2023-03-07T02:27:51;69.10;;;27.55;;
21927;SDS011;11128;51.096;17.190;2023-03-07T02:32:54;69.38;;;26.65;;
21927;SDS011;11128;51.096;17.190;2023-03-07T02:37:56;74.55;;;30.88;;
21927;SDS011;11128;51.096;17.190;2023-03-07T02:43:01;74.88;;;28.50;;
21927;SDS011;11128;51.096;17.190;2023-03-07T02:48:09;73.70;;;27.15;;
21927;SDS011;11128;51.096;17.190;2023-03-07T02:53:10;76.72;;;30.33;;
21927;SDS011;11128;51.096;17.190;2023-03-07T02:58:11;74.35;;;29.55;;
21927;SDS011;11128;51.096;17.190;2023-03-07T03:03:12;76.50;;;31.27;;
21927;SDS011;11128;51.096;17.190;2023-03-07T03:08:14;81.65;;;31.80;;
21927;SDS011;11128;51.096;17.190;2023-03-07T03:13:15;101.95;;;36.35;;
21927;SDS011;11128;51.096;17.190;2023-03-07T03:18:16;117.22;;;36.53;;
21927;SDS011;11128;51.096;17.190;2023-03-07T03:23:17;95.22;;;31.33;;
21927;SDS011;11128;51.096;17.190;2023-03-07T03:28:19;93.07;;;32.60;;
21927;SDS011;11128;51.096;17.190;2023-03-07T03:33:20;114.78;;;34.92;;
21927;SDS011;11128;51.096;17.190;2023-03-07T03:38:21;149.23;;;35.92;;
21927;SDS011;11128;51.096;17.190;2023-03-07T03:43:22;88.97;;;32.00;;
21927;SDS011;11128;51.096;17.190;2023-03-07T03:48:23;96.60;;;32.72;;
21927;SDS011;11128;51.096;17.190;2023-03-07T03:53:25;101.30;;;32.85;;
21927;SDS011;11128;51.096;17.190;2023-03-07T03:58:26;102.68;;;33.60;;
21927;SDS011;11128;51.096;17.190;2023-03-07T04:03:28;86.70;;;31.20;;
21927;SDS011;11128;51.096;17.190;2023-03-07T04:08:29;98.10;;;33.53;;
21927;SDS011;11128;51.096;17.190;2023-03-07T04:13:31;89.43;;;33.80;;
21927;SDS011;11128;51.096;17.190;2023-03-07T04:18:34;97.70;;;34.92;;
21927;SDS011;11128;51.096;17.190;2023-03-07T04:23:35;87.85;;;33.35;;
21927;SDS011;11128;51.096;17.190;2023-03-07T04:28:38;92.68;;;34.38;;
21927;SDS011;11128;51.096;17.190;2023-03-07T04:33:43;95.32;;;35.00;;
21927;SDS011;11128;51.096;17.190;2023-03-07T04:38:45;90.63;;;35.03;;
21927;SDS011;11128;51.096;17.190;2023-03-07T04:43:47;82.88;;;32.35;;
21927;SDS011;11128;51.096;17.190;2023-03-07T04:48:49;91.20;;;34.20;;
21927;SDS011;11128;51.096;17.190;2023-03-07T04:53:50;92.00;;;34.75;;
21927;SDS011;11128;51.096;17.190;2023-03-07T04:58:51;87.20;;;33.72;;
21927;SDS011;11128;51.096;17.190;2023-03-07T05:03:52;85.90;;;34.38;;
21927;SDS011;11128;51.096;17.190;2023-03-07T05:08:53;100.03;;;36.03;;
21927;SDS011;11128;51.096;17.190;2023-03-07T05:13:55;85.93;;;31.58;;
21927;SDS011;11128;51.096;17.190;2023-03-07T05:18:56;76.60;;;29.83;;
21927;SDS011;11128;51.096;17.190;2023-03-07T05:23:57;78.85;;;30.25;;
21927;SDS011;11128;51.096;17.190;2023-03-07T05:28:58;74.13;;;28.35;;
21927;SDS011;11128;51.096;17.190;2023-03-07T05:33:59;73.35;;;29.08;;
21927;SDS011;11128;51.096;17.190;2023-03-07T05:39:01;71.80;;;26.73;;
21927;SDS011;11128;51.096;17.190;2023-03-07T05:44:02;68.30;;;26.20;;
21927;SDS011;11128;51.096;17.190;2023-03-07T05:49:03;70.07;;;26.23;;
21927;SDS011;11128;51.096;17.190;2023-03-07T05:54:04;59.30;;;25.05;;
21927;SDS011;11128;51.096;17.190;2023-03-07T05:59:05;62.03;;;24.23;;
21927;SDS011;11128;51.096;17.190;2023-03-07T06:04:07;63.63;;;24.15;;
21927;SDS011;11128;51.096;17.190;2023-03-07T06:09:09;57.22;;;24.20;;
21927;SDS011;11128;51.096;17.190;2023-03-07T06:14:10;54.10;;;20.98;;
21927;SDS011;11128;51.096;17.190;2023-03-07T06:19:11;54.08;;;20.63;;
21927;SDS011;11128;51.096;17.190;2023-03-07T06:24:13;43.35;;;19.08;;
21927;SDS011;11128;51.096;17.190;2023-03-07T06:29:14;43.25;;;19.95;;
21927;SDS011;11128;51.096;17.190;2023-03-07T06:34:16;45.58;;;19.17;;
21927;SDS011;11128;51.096;17.190;2023-03-07T06:39:17;42.10;;;18.92;;
21927;SDS011;11128;51.096;17.190;2023-03-07T06:44:20;45.83;;;18.77;;
21927;SDS011;11128;51.096;17.190;2023-03-07T06:49:22;41.80;;;18.85;;
21927;SDS011;11128;51.096;17.190;2023-03-07T06:54:23;39.85;;;18.33;;
21927;SDS011;11128;51.096;17.190;2023-03-07T06:59:24;41.85;;;17.55;;
21927;SDS011;11128;51.096;17.190;2023-03-07T07:04:25;38.10;;;17.77;;
21927;SDS011;11128;51.096;17.190;2023-03-07T07:09:28;44.30;;;19.05;;
21927;SDS011;11128;51.096;17.190;2023-03-07T07:14:31;39.95;;;17.65;;
21927;SDS011;11128;51.096;17.190;2023-03-07T07:19:34;40.08;;;17.08;;
21927;SDS011;11128;51.096;17.190;2023-03-07T07:24:37;42.10;;;17.55;;
21927;SDS011;11128;51.096;17.190;2023-03-07T07:29:38;37.00;;;16.20;;
21927;SDS011;11128;51.096;17.190;2023-03-07T07:34:40;36.40;;;16.88;;
21927;SDS011;11128;51.096;17.190;2023-03-07T07:39:41;37.15;;;17.25;;
21927;SDS011;11128;51.096;17.190;2023-03-07T07:44:43;38.42;;;16.67;;
21927;SDS011;11128;51.096;17.190;2023-03-07T07:49:46;31.38;;;15.73;;
21927;SDS011;11128;51.096;17.190;2023-03-07T07:54:47;36.65;;;17.15;;
21927;SDS011;11128;51.096;17.190;2023-03-07T07:59:49;30.75;;;15.00;;
21927;SDS011;11128;51.096;17.190;2023-03-07T08:04:50;36.55;;;18.17;;
21927;SDS011;11128;51.096;17.190;2023-03-07T08:09:52;33.63;;;16.25;;
21927;SDS011;11128;51.096;17.190;2023-03-07T08:14:54;34.45;;;16.95;;
21927;SDS011;11128;51.096;17.190;2023-03-07T08:19:56;33.85;;;16.73;;
21927;SDS011;11128;51.096;17.190;2023-03-07T08:25:02;32.42;;;16.08;;
21927;SDS011;11128;51.096;17.190;2023-03-07T08:30:04;33.05;;;17.17;;
21927;SDS011;11128;51.096;17.190;2023-03-07T08:35:06;35.22;;;18.35;;
21927;SDS011;11128;51.096;17.190;2023-03-07T08:40:08;34.63;;;17.63;;
21927;SDS011;11128;51.096;17.190;2023-03-07T08:45:10;32.25;;;16.95;;
21927;SDS011;11128;51.096;17.190;2023-03-07T08:50:12;27.50;;;13.02;;
21927;SDS011;11128;51.096;17.190;2023-03-07T08:55:14;20.60;;;10.18;;
21927;SDS011;11128;51.096;17.190;2023-03-07T09:00:16;25.67;;;11.35;;
21927;SDS011;11128;51.096;17.190;2023-03-07T09:05:18;20.08;;;9.35;;
21927;SDS011;11128;51.096;17.190;2023-03-07T09:10:20;18.75;;;9.70;;
21927;SDS011;11128;51.096;17.190;2023-03-07T09:15:22;20.85;;;9.98;;
21927;SDS011;11128;51.096;17.190;2023-03-07T09:20:24;17.17;;;9.20;;
21927;SDS011;11128;51.096;17.190;2023-03-07T09:25:26;20.17;;;9.80;;
21927;SDS011;11128;51.096;17.190;2023-03-07T09:30:28;21.55;;;10.70;;
21927;SDS011;11128;51.096;17.190;2023-03-07T09:35:29;19.55;;;7.97;;
21927;SDS011;11128;51.096;17.190;2023-03-07T09:40:31;21.50;;;10.10;;
21927;SDS011;11128;51.096;17.190;2023-03-07T09:51:07;18.38;;;8.98;;
21927;SDS011;11128;51.096;17.190;2023-03-07T09:56:26;18.23;;;8.45;;
21927;SDS011;11128;51.096;17.190;2023-03-07T10:01:29;19.65;;;7.97;;
21927;SDS011;11128;51.096;17.190;2023-03-07T10:06:42;17.65;;;8.32;;
21927;SDS011;11128;51.096;17.190;2023-03-07T10:22:57;15.85;;;7.75;;
21927;SDS011;11128;51.096;17.190;2023-03-07T10:33:24;18.67;;;8.38;;
21927;SDS011;11128;51.096;17.190;2023-03-07T10:38:36;15.30;;;8.70;;
21927;SDS011;11128;51.096;17.190;2023-03-07T10:43:50;12.73;;;7.80;;
21927;SDS011;11128;51.096;17.190;2023-03-07T10:48:54;13.13;;;8.00;;
21927;SDS011;11128;51.096;17.190;2023-03-07T10:54:12;15.20;;;7.75;;
21927;SDS011;11128;51.096;17.190;2023-03-07T10:59:17;14.27;;;7.68;;
21927;SDS011;11128;51.096;17.190;2023-03-07T11:04:28;14.88;;;7.90;;
21927;SDS011;11128;51.096;17.190;2023-03-07T11:09:45;15.80;;;8.13;;
21927;SDS011;11128;51.096;17.190;2023-03-07T11:14:48;14.10;;;7.70;;
21927;SDS011;11128;51.096;17.190;2023-03-07T11:19:56;11.80;;;6.28;;
21927;SDS011;11128;51.096;17.190;2023-03-07T11:30:33;12.85;;;6.40;;
21927;SDS011;11128;51.096;17.190;2023-03-07T11:52:03;11.90;;;6.53;;
21927;SDS011;11128;51.096;17.190;2023-03-07T12:02:55;11.90;;;6.30;;
21927;SDS011;11128;51.096;17.190;2023-03-07T12:24:22;9.52;;;5.57;;
21927;SDS011;11128;51.096;17.190;2023-03-07T12:35:05;10.77;;;6.05;;
21927;SDS011;11128;51.096;17.190;2023-03-07T12:45:20;10.30;;;5.75;;
21927;SDS011;11128;51.096;17.190;2023-03-07T12:50:36;10.20;;;5.97;;
21927;SDS011;11128;51.096;17.190;2023-03-07T12:55:44;11.23;;;5.70;;
21927;SDS011;11128;51.096;17.190;2023-03-07T13:00:58;11.00;;;5.53;;
21927;SDS011;11128;51.096;17.190;2023-03-07T13:06:03;9.60;;;5.18;;
21927;SDS011;11128;51.096;17.190;2023-03-07T13:11:14;7.65;;;4.47;;
21927;SDS011;11128;51.096;17.190;2023-03-07T13:16:30;8.35;;;4.47;;
21927;SDS011;11128;51.096;17.190;2023-03-07T13:21:32;8.88;;;5.32;;
21927;SDS011;11128;51.096;17.190;2023-03-07T13:26:34;10.27;;;4.70;;
21927;SDS011;11128;51.096;17.190;2023-03-07T13:31:36;8.82;;;4.50;;
21927;SDS011;11128;51.096;17.190;2023-03-07T13:36:39;8.15;;;4.68;;
21927;SDS011;11128;51.096;17.190;2023-03-07T13:41:45;6.55;;;4.57;;
21927;SDS011;11128;51.096;17.190;2023-03-07T13:46:48;10.60;;;5.05;;
21927;SDS011;11128;51.096;17.190;2023-03-07T13:57:18;12.65;;;5.53;;
21927;SDS011;11128;51.096;17.190;2023-03-07T14:02:21;9.45;;;4.68;;
21927;SDS011;11128;51.096;17.190;2023-03-07T14:28:35;9.07;;;5.10;;
21927;SDS011;11128;51.096;17.190;2023-03-07T14:33:37;8.75;;;4.40;;
21927;SDS011;11128;51.096;17.190;2023-03-07T14:38:39;8.60;;;4.93;;
21927;SDS011;11128;51.096;17.190;2023-03-07T14:54:26;8.25;;;4.95;;
21927;SDS011;11128;51.096;17.190;2023-03-07T14:59:32;9.63;;;5.15;;
21927;SDS011;11128;51.096;17.190;2023-03-07T15:04:33;12.40;;;5.88;;
21927;SDS011;11128;51.096;17.190;2023-03-07T15:09:36;8.68;;;5.00;;
21927;SDS011;11128;51.096;17.190;2023-03-07T15:19:48;13.68;;;6.85;;
21927;SDS011;11128;51.096;17.190;2023-03-07T15:24:58;10.73;;;5.28;;
21927;SDS011;11128;51.096;17.190;2023-03-07T15:30:00;10.10;;;5.30;;
21927;SDS011;11128;51.096;17.190;2023-03-07T15:45:57;12.05;;;6.20;;
21927;SDS011;11128;51.096;17.190;2023-03-07T15:50:38;11.27;;;5.65;;
21927;SDS011;11128;51.096;17.190;2023-03-07T15:55:40;10.55;;;5.90;;
21927;SDS011;11128;51.096;17.190;2023-03-07T16:00:42;12.15;;;6.35;;
21927;SDS011;11128;51.096;17.190;2023-03-07T16:05:43;19.27;;;8.27;;
21927;SDS011;11128;51.096;17.190;2023-03-07T16:10:46;18.75;;;8.35;;
21927;SDS011;11128;51.096;17.190;2023-03-07T16:16:01;14.80;;;7.97;;
21927;SDS011;11128;51.096;17.190;2023-03-07T16:21:13;17.65;;;8.10;;
21927;SDS011;11128;51.096;17.190;2023-03-07T16:26:16;15.98;;;7.60;;
21927;SDS011;11128;51.096;17.190;2023-03-07T16:31:21;12.23;;;7.38;;
21927;SDS011;11128;51.096;17.190;2023-03-07T16:36:23;11.38;;;6.28;;
21927;SDS011;11128;51.096;17.190;2023-03-07T16:41:24;11.13;;;5.45;;
21927;SDS011;11128;51.096;17.190;2023-03-07T16:46:25;14.90;;;5.72;;
21927;SDS011;11128;51.096;17.190;2023-03-07T16:51:28;8.70;;;5.18;;
21927;SDS011;11128;51.096;17.190;2023-03-07T16:56:35;10.07;;;5.43;;
21927;SDS011;11128;51.096;17.190;2023-03-07T17:01:41;10.05;;;5.63;;
21927;SDS011;11128;51.096;17.190;2023-03-07T17:06:45;11.32;;;5.55;;
21927;SDS011;11128;51.096;17.190;2023-03-07T17:11:48;12.65;;;5.65;;
21927;SDS011;11128;51.096;17.190;2023-03-07T17:16:50;13.50;;;6.57;;
21927;SDS011;11128;51.096;17.190;2023-03-07T17:21:51;13.35;;;7.25;;
21927;SDS011;11128;51.096;17.190;2023-03-07T17:26:54;11.52;;;6.28;;
21927;SDS011;11128;51.096;17.190;2023-03-07T17:31:59;10.85;;;6.07;;
21927;SDS011;11128;51.096;17.190;2023-03-07T17:37:00;13.07;;;6.63;;
21927;SDS011;11128;51.096;17.190;2023-03-07T17:42:02;13.60;;;6.85;;
21927;SDS011;11128;51.096;17.190;2023-03-07T17:47:04;12.00;;;6.63;;
21927;SDS011;11128;51.096;17.190;2023-03-07T17:52:05;11.05;;;6.38;;
21927;SDS011;11128;51.096;17.190;2023-03-07T17:57:07;10.60;;;5.97;;
21927;SDS011;11128;51.096;17.190;2023-03-07T18:02:10;12.48;;;6.18;;
21927;SDS011;11128;51.096;17.190;2023-03-07T18:07:12;12.63;;;6.38;;
21927;SDS011;11128;51.096;17.190;2023-03-07T18:12:13;11.35;;;5.72;;
21927;SDS011;11128;51.096;17.190;2023-03-07T18:17:14;15.43;;;6.68;;
21927;SDS011;11128;51.096;17.190;2023-03-07T18:22:16;12.68;;;6.18;;
21927;SDS011;11128;51.096;17.190;2023-03-07T18:27:18;11.73;;;5.82;;
21927;SDS011;11128;51.096;17.190;2023-03-07T18:32:19;8.57;;;4.97;;
21927;SDS011;11128;51.096;17.190;2023-03-07T18:37:20;9.32;;;5.05;;
21927;SDS011;11128;51.096;17.190;2023-03-07T18:42:22;9.88;;;5.25;;
21927;SDS011;11128;51.096;17.190;2023-03-07T18:47:23;13.45;;;6.10;;
21927;SDS011;11128;51.096;17.190;2023-03-07T18:52:24;11.38;;;5.53;;
21927;SDS011;11128;51.096;17.190;2023-03-07T18:57:26;14.57;;;5.53;;
21927;SDS011;11128;51.096;17.190;2023-03-07T19:02:27;12.50;;;5.32;;
21927;SDS011;11128;51.096;17.190;2023-03-07T19:07:28;13.27;;;5.57;;
21927;SDS011;11128;51.096;17.190;2023-03-07T19:12:31;10.65;;;5.35;;
21927;SDS011;11128;51.096;17.190;2023-03-07T19:17:36;10.07;;;4.88;;
21927;SDS011;11128;51.096;17.190;2023-03-07T19:22:38;11.05;;;6.03;;
21927;SDS011;11128;51.096;17.190;2023-03-07T19:27:39;12.40;;;5.43;;
21927;SDS011;11128;51.096;17.190;2023-03-07T19:32:41;11.52;;;5.40;;
21927;SDS011;11128;51.096;17.190;2023-03-07T19:37:42;11.32;;;5.38;;
21927;SDS011;11128;51.096;17.190;2023-03-07T19:42:43;10.65;;;5.00;;
21927;SDS011;11128;51.096;17.190;2023-03-07T19:47:45;9.32;;;5.38;;
21927;SDS011;11128;51.096;17.190;2023-03-07T19:52:46;11.43;;;5.68;;
21927;SDS011;11128;51.096;17.190;2023-03-07T19:57:48;10.32;;;5.80;;
21927;SDS011;11128;51.096;17.190;2023-03-07T20:02:49;10.32;;;5.55;;
21927;SDS011;11128;51.096;17.190;2023-03-07T20:07:50;11.68;;;5.57;;
21927;SDS011;11128;51.096;17.190;2023-03-07T20:12:51;10.60;;;5.15;;
21927;SDS011;11128;51.096;17.190;2023-03-07T20:17:54;9.95;;;5.68;;
21927;SDS011;11128;51.096;17.190;2023-03-07T20:22:57;11.45;;;6.22;;
21927;SDS011;11128;51.096;17.190;2023-03-07T20:27:58;9.90;;;5.30;;
21927;SDS011;11128;51.096;17.190;2023-03-07T20:33:00;11.48;;;6.10;;
21927;SDS011;11128;51.096;17.190;2023-03-07T20:38:01;11.20;;;6.25;;
21927;SDS011;11128;51.096;17.190;2023-03-07T20:43:02;14.25;;;6.43;;
21927;SDS011;11128;51.096;17.190;2023-03-07T20:48:05;10.80;;;5.60;;
21927;SDS011;11128;51.096;17.190;2023-03-07T20:53:06;10.35;;;6.07;;
21927;SDS011;11128;51.096;17.190;2023-03-07T20:58:08;11.50;;;6.47;;
21927;SDS011;11128;51.096;17.190;2023-03-07T21:03:09;11.05;;;6.55;;
21927;SDS011;11128;51.096;17.190;2023-03-07T21:08:13;9.80;;;5.70;;
21927;SDS011;11128;51.096;17.190;2023-03-07T21:13:16;12.55;;;6.20;;
21927;SDS011;11128;51.096;17.190;2023-03-07T21:18:17;10.82;;;6.47;;
21927;SDS011;11128;51.096;17.190;2023-03-07T21:23:18;10.75;;;6.00;;
21927;SDS011;11128;51.096;17.190;2023-03-07T21:28:20;13.60;;;6.53;;
21927;SDS011;11128;51.096;17.190;2023-03-07T21:33:21;13.15;;;5.97;;
21927;SDS011;11128;51.096;17.190;2023-03-07T21:38:22;11.32;;;5.38;;
21927;SDS011;11128;51.096;17.190;2023-03-07T21:43:24;10.50;;;4.97;;
21927;SDS011;11128;51.096;17.190;2023-03-07T21:48:26;7.28;;;3.92;;
21927;SDS011;11128;51.096;17.190;2023-03-07T21:53:27;5.82;;;3.30;;
21927;SDS011;11128;51.096;17.190;2023-03-07T21:58:29;5.03;;;2.78;;
21927;SDS011;11128;51.096;17.190;2023-03-07T22:03:31;5.03;;;3.10;;
21927;SDS011;11128;51.096;17.190;2023-03-07T22:08:33;6.18;;;3.63;;
21927;SDS011;11128;51.096;17.190;2023-03-07T22:13:36;6.13;;;3.80;;
21927;SDS011;11128;51.096;17.190;2023-03-07T22:18:39;6.82;;;3.47;;
21927;SDS011;11128;51.096;17.190;2023-03-07T22:23:40;6.55;;;3.70;;
21927;SDS011;11128;51.096;17.190;2023-03-07T22:28:42;9.25;;;4.32;;
21927;SDS011;11128;51.096;17.190;2023-03-07T22:33:43;6.60;;;3.50;;
21927;SDS011;11128;51.096;17.190;2023-03-07T22:38:45;6.97;;;4.10;;
21927;SDS011;11128;51.096;17.190;2023-03-07T22:43:46;9.55;;;4.95;;
21927;SDS011;11128;51.096;17.190;2023-03-07T22:48:50;9.75;;;4.90;;
21927;SDS011;11128;51.096;17.190;2023-03-07T22:53:53;10.40;;;4.78;;
21927;SDS011;11128;51.096;17.190;2023-03-07T22:58:54;11.60;;;5.90;;
21927;SDS011;11128;51.096;17.190;2023-03-07T23:03:56;12.18;;;5.75;;
21927;SDS011;11128;51.096;17.190;2023-03-07T23:08:59;12.75;;;6.18;;
21927;SDS011;11128;51.096;17.190;2023-03-07T23:14:02;17.00;;;6.65;;
21927;SDS011;11128;51.096;17.190;2023-03-07T23:19:04;14.85;;;6.38;;
21927;SDS011;11128;51.096;17.190;2023-03-07T23:24:05;15.40;;;6.82;;
21927;SDS011;11128;51.096;17.190;2023-03-07T23:29:07;12.88;;;6.28;;
21927;SDS011;11128;51.096;17.190;2023-03-07T23:34:17;12.40;;;6.20;;
21927;SDS011;11128;51.096;17.190;2023-03-07T23:39:19;12.35;;;6.72;;
21927;SDS011;11128;51.096;17.190;2023-03-07T23:44:20;13.90;;;6.78;;
21927;SDS011;11128;51.096;17.190;2023-03-07T23:49:22;13.38;;;6.72;;
21927;SDS011;11128;51.096;17.190;2023-03-07T23:54:23;13.18;;;6.85;;
21927;SDS011;11128;51.096;17.190;2023-03-07T23:59:24;15.82;;;7.32;;
